Decoded Metar for KACK (NANTUCKET in MA, USA) (IATA:ACK) | Meteo·Mobile Aviation Weather
aviador You're here:

KACK Decoded Metar

NANTUCKET in MA, USA
Report Time2019-10-18 13:53:00
UTC Time2019-10-18 14:37:42
Flight Rules vfr VFR
Wind300° at 16 Gusting to 24 kt
W.Decomp.*RWY 33: 15.5 kt HW 3.9 kt LCW
RWY 30: 15.4 kt HW 4.4 kt RCW
RWY 24: 3.9 kt HW 15.5 kt RCW
Visibility9999 m
Phenomena:N/A
Clouds:Scattered 038 Hf
Broken 044 Hf
Expected CloudBase > 2,800 ft AGL from Temp-Dew spread
Ceiling4,400 ft
Temp13°C (ISA -2)
Dew Point06°C (63% RH)
AAT6.3°C
QNH1005 hPa
Density Alt226 ft
Elevation52 ft
Report Wrong Elevation
Raw Report
KACK 181353Z 30016G24KT 10SM SCT038 BKN044 13/06 A2968 RMK AO2 PK
WND 30027/1335 SLP051 T01330056 $=

Extra information for KACK:More info

Metar Taf Metar & Taf Last 4 Metars F.Rules Stats Wind Profile Meteogram Temp Stats Airport Information Weather charts Add Link Nearby VenuesMetar ALERT Operation Metar Decoded Social comments

AIRNAV info for KACK